createdAt,value
2022-12-18T00:00:47.884Z,27.63
2022-12-18T00:03:21.766Z,37.33
2022-12-18T00:05:55.485Z,34.57
2022-12-18T00:08:30.258Z,37.60
2022-12-18T00:11:08.171Z,33.93
2022-12-18T00:13:42.187Z,38.10
2022-12-18T00:16:19.414Z,33.10
2022-12-18T00:18:56.272Z,35.30
2022-12-18T00:21:33.563Z,35.60
2022-12-18T00:24:07.957Z,31.43
2022-12-18T00:26:43.385Z,31.63
2022-12-18T00:29:17.234Z,28.30
2022-12-18T00:31:51.205Z,34.00
2022-12-18T00:34:25.243Z,32.97
2022-12-18T00:36:58.688Z,35.90
2022-12-18T00:39:32.508Z,33.67
2022-12-18T00:42:25.010Z,41.17
2022-12-18T00:44:58.860Z,35.17
2022-12-18T00:47:32.513Z,34.47
2022-12-18T00:50:07.583Z,31.90
2022-12-18T00:52:44.594Z,30.37
2022-12-18T00:55:19.227Z,26.93
2022-12-18T00:57:54.519Z,31.17
2022-12-18T01:00:28.355Z,32.37
2022-12-18T01:03:02.020Z,31.80
2022-12-18T01:05:36.042Z,30.30
2022-12-18T01:08:09.757Z,30.47
2022-12-18T01:10:43.617Z,30.47
2022-12-18T01:13:18.534Z,26.90
2022-12-18T01:15:52.385Z,31.17
2022-12-18T01:18:26.003Z,29.10
2022-12-18T01:21:00.123Z,32.07
2022-12-18T01:23:33.759Z,26.20
2022-12-18T01:26:08.510Z,29.30
2022-12-18T01:28:44.703Z,27.67
2022-12-18T01:31:21.088Z,33.20
2022-12-18T01:33:55.113Z,26.97
2022-12-18T01:36:30.851Z,27.97
2022-12-18T01:39:06.892Z,30.23
2022-12-18T01:41:58.840Z,31.07
2022-12-18T01:45:08.581Z,31.97
2022-12-18T01:47:46.841Z,31.53
2022-12-18T01:50:23.480Z,26.75
2022-12-18T01:53:01.562Z,31.63
2022-12-18T01:55:45.083Z,30.35
2022-12-18T01:58:20.042Z,27.03
2022-12-18T02:00:56.563Z,27.60
2022-12-18T02:03:30.884Z,32.90
2022-12-18T02:06:14.233Z,28.30
2022-12-18T02:09:04.546Z,30.10
2022-12-18T02:11:51.450Z,24.70
2022-12-18T02:14:32.116Z,33.03
2022-12-18T02:17:13.760Z,28.63
2022-12-18T02:20:07.262Z,27.23
2022-12-18T02:22:56.063Z,25.07
2022-12-18T02:25:55.280Z,25.50
2022-12-18T02:28:34.350Z,22.80
2022-12-18T02:31:13.050Z,25.17
2022-12-18T02:33:48.998Z,23.33
2022-12-18T02:36:24.833Z,26.80
2022-12-18T02:39:01.490Z,24.67
2022-12-18T02:41:38.132Z,25.03
2022-12-18T02:44:15.621Z,25.67
2022-12-18T02:46:53.962Z,21.60
2022-12-18T02:49:36.959Z,28.33
2022-12-18T02:52:20.348Z,25.40
2022-12-18T02:55:02.719Z,30.23
2022-12-18T02:57:44.922Z,26.93
2022-12-18T03:00:22.441Z,30.10
2022-12-18T03:03:12.054Z,30.43
2022-12-18T03:05:53.984Z,23.93
2022-12-18T03:08:31.062Z,27.83
2022-12-18T03:11:08.751Z,25.77
2022-12-18T03:13:50.234Z,21.35
2022-12-18T03:16:28.062Z,21.67
2022-12-18T03:19:06.182Z,25.80
2022-12-18T03:21:44.673Z,22.85
2022-12-18T03:24:20.848Z,24.60
2022-12-18T03:26:59.820Z,21.33
2022-12-18T03:29:39.310Z,21.47
2022-12-18T03:32:17.918Z,17.57
2022-12-18T03:34:54.745Z,22.60
2022-12-18T03:37:32.492Z,23.20
2022-12-18T03:40:08.004Z,21.10
2022-12-18T03:42:50.035Z,23.33
2022-12-18T03:45:34.621Z,26.13
2022-12-18T03:48:15.655Z,28.87
2022-12-18T03:50:56.034Z,24.67
2022-12-18T03:53:38.731Z,20.70
2022-12-18T03:56:16.266Z,22.13
2022-12-18T03:58:51.976Z,26.13
2022-12-18T04:01:33.839Z,24.10
2022-12-18T04:04:10.140Z,22.67
2022-12-18T04:06:45.942Z,26.80
2022-12-18T04:09:20.631Z,22.00
2022-12-18T04:11:54.436Z,19.40
2022-12-18T04:14:28.076Z,20.97
2022-12-18T04:17:03.375Z,22.33
2022-12-18T04:19:37.172Z,19.97
2022-12-18T04:22:12.206Z,23.30
2022-12-18T04:24:45.900Z,27.90
2022-12-18T04:27:19.741Z,23.87
2022-12-18T04:29:53.372Z,22.57
2022-12-18T04:32:28.570Z,27.07
2022-12-18T04:35:02.577Z,24.90
2022-12-18T04:37:36.505Z,26.17
2022-12-18T04:40:11.269Z,21.20
2022-12-18T04:42:45.087Z,29.47
2022-12-18T04:45:18.697Z,24.80
2022-12-18T04:47:53.862Z,16.83
2022-12-18T04:50:27.944Z,22.03
2022-12-18T04:53:01.922Z,24.33
2022-12-18T04:55:35.466Z,21.73
2022-12-18T04:58:09.351Z,19.90
2022-12-18T05:00:43.345Z,19.57
2022-12-18T05:03:18.378Z,24.50
2022-12-18T05:05:52.473Z,22.53
2022-12-18T05:08:26.490Z,25.67
2022-12-18T05:11:01.936Z,19.83
2022-12-18T05:13:37.629Z,23.53
2022-12-18T05:16:12.044Z,26.50
2022-12-18T05:18:47.283Z,27.53
2022-12-18T05:21:20.927Z,21.60
2022-12-18T05:23:54.642Z,24.33
2022-12-18T05:26:28.331Z,22.40
2022-12-18T05:29:02.241Z,21.33
2022-12-18T05:31:39.759Z,25.07
2022-12-18T05:34:15.232Z,25.73
2022-12-18T05:36:48.957Z,30.83
2022-12-18T05:39:22.734Z,22.33
2022-12-18T05:41:56.294Z,25.50
2022-12-18T05:44:30.260Z,23.37
2022-12-18T05:47:03.945Z,21.63
2022-12-18T05:49:39.216Z,24.80
2022-12-18T05:52:12.914Z,30.87
2022-12-18T05:54:46.617Z,21.70
2022-12-18T05:57:20.330Z,25.33
2022-12-18T05:59:54.293Z,20.80
2022-12-18T06:02:28.215Z,21.27
2022-12-18T06:05:03.713Z,25.10
2022-12-18T06:07:37.394Z,30.77
2022-12-18T06:10:11.867Z,25.50
2022-12-18T06:12:48.630Z,28.73
2022-12-18T06:15:22.533Z,25.07
2022-12-18T06:17:56.135Z,22.73
2022-12-18T06:20:37.448Z,24.80
2022-12-18T06:23:11.488Z,22.67
2022-12-18T06:25:45.523Z,23.60
2022-12-18T06:28:19.319Z,30.63
2022-12-18T06:30:53.957Z,27.87
2022-12-18T06:33:28.913Z,26.63
2022-12-18T06:36:05.549Z,27.20
2022-12-18T06:38:41.325Z,23.57
2022-12-18T06:41:17.675Z,29.40
2022-12-18T06:43:52.851Z,28.97
2022-12-18T06:46:29.472Z,23.20
2022-12-18T06:49:03.273Z,31.67
2022-12-18T06:51:38.770Z,25.80
2022-12-18T06:54:12.356Z,24.23
2022-12-18T06:56:47.260Z,23.07
2022-12-18T06:59:21.289Z,27.60
2022-12-18T07:01:55.236Z,30.70
2022-12-18T07:04:30.561Z,27.53
2022-12-18T07:07:05.680Z,25.30
2022-12-18T07:09:39.360Z,23.70
2022-12-18T07:12:13.307Z,27.53
2022-12-18T07:14:47.038Z,32.63
2022-12-18T07:17:20.936Z,26.60
2022-12-18T07:19:54.607Z,27.73
2022-12-18T07:22:29.907Z,25.63
2022-12-18T07:25:03.902Z,27.97
2022-12-18T07:27:37.735Z,26.47
2022-12-18T07:30:12.643Z,27.93
2022-12-18T07:32:46.515Z,29.60
2022-12-18T07:35:24.780Z,26.27
2022-12-18T07:38:00.510Z,27.47
2022-12-18T07:40:34.241Z,27.67
2022-12-18T07:43:08.119Z,26.30
2022-12-18T07:45:41.756Z,27.13
2022-12-18T07:48:15.595Z,25.97
2022-12-18T07:50:49.817Z,29.80
2022-12-18T07:53:25.072Z,23.80
2022-12-18T07:56:25.627Z,32.30
2022-12-18T07:58:52.938Z,25.17
2022-12-18T08:01:26.923Z,36.70
2022-12-18T08:04:01.192Z,35.90
2022-12-18T08:06:34.800Z,30.07
2022-12-18T08:09:11.971Z,27.80
2022-12-18T08:11:45.845Z,35.80
2022-12-18T08:14:19.636Z,30.60
2022-12-18T08:16:53.546Z,25.30
2022-12-18T08:19:27.611Z,30.73
2022-12-18T08:22:01.362Z,38.97
2022-12-18T08:24:36.804Z,28.20
2022-12-18T08:27:28.937Z,32.83
2022-12-18T08:30:04.052Z,29.73
2022-12-18T08:32:37.978Z,31.67
2022-12-18T08:35:15.560Z,33.97
2022-12-18T08:37:52.230Z,28.30
2022-12-18T08:40:29.341Z,28.47
2022-12-18T08:43:20.684Z,31.23
2022-12-18T08:45:54.646Z,29.80
2022-12-18T08:48:28.320Z,31.63
2022-12-18T08:51:02.435Z,33.97
2022-12-18T08:53:36.166Z,32.37
2022-12-18T08:56:11.261Z,31.17
2022-12-18T08:58:45.380Z,26.30
2022-12-18T09:01:19.214Z,30.77
2022-12-18T09:03:53.073Z,28.43
2022-12-18T09:06:27.606Z,30.27
2022-12-18T09:09:01.392Z,37.70
2022-12-18T09:11:37.237Z,34.47
2022-12-18T09:14:11.946Z,35.27
2022-12-18T09:16:45.719Z,26.23
2022-12-18T09:19:19.329Z,29.17
2022-12-18T09:21:52.986Z,35.87
2022-12-18T09:24:27.114Z,30.83
2022-12-18T09:27:02.469Z,29.77
2022-12-18T09:29:36.291Z,28.63
2022-12-18T09:32:10.104Z,28.00
2022-12-18T09:34:43.707Z,29.27
2022-12-18T09:37:17.513Z,29.33
2022-12-18T09:39:51.140Z,32.53
2022-12-18T09:42:26.322Z,31.70
2022-12-18T09:45:01.492Z,24.57
2022-12-18T09:47:39.736Z,24.13
2022-12-18T09:50:25.640Z,21.05
2022-12-18T09:53:04.854Z,28.90
2022-12-18T09:55:41.529Z,28.83
2022-12-18T09:58:22.546Z,26.90
2022-12-18T10:00:56.984Z,27.63
2022-12-18T10:03:30.977Z,30.57
2022-12-18T10:06:13.054Z,26.73
2022-12-18T10:08:53.780Z,26.97
2022-12-18T10:11:41.821Z,30.70
2022-12-18T10:14:24.715Z,31.85
2022-12-18T10:17:10.068Z,27.23
2022-12-18T10:19:51.276Z,25.83
2022-12-18T10:22:45.120Z,31.27
2022-12-18T10:25:25.520Z,30.93
2022-12-18T10:28:05.990Z,28.37
2022-12-18T10:30:42.291Z,36.10
2022-12-18T10:33:19.499Z,27.90
2022-12-18T10:35:53.698Z,25.53
2022-12-18T10:38:29.056Z,28.57
2022-12-18T10:41:05.523Z,22.80
2022-12-18T10:43:40.752Z,27.77
2022-12-18T10:46:19.197Z,27.17
2022-12-18T10:48:56.477Z,29.25
2022-12-18T10:51:32.364Z,28.70
2022-12-18T10:54:08.208Z,28.13
2022-12-18T10:56:42.495Z,28.33
2022-12-18T10:59:19.612Z,23.30
2022-12-18T11:01:57.312Z,30.83
2022-12-18T11:04:32.917Z,25.88
2022-12-18T11:07:08.063Z,28.93
2022-12-18T11:09:42.408Z,25.23
2022-12-18T11:12:19.425Z,31.80
2022-12-18T11:14:54.708Z,29.63
2022-12-18T11:17:34.518Z,28.90
2022-12-18T11:20:21.290Z,33.63
2022-12-18T11:22:59.854Z,31.67
2022-12-18T11:25:36.145Z,27.85
2022-12-18T11:28:30.227Z,30.40
2022-12-18T11:31:26.648Z,28.93
2022-12-18T11:37:04.832Z,26.30
2022-12-18T11:39:40.215Z,26.73
2022-12-18T11:42:19.510Z,28.90
2022-12-18T11:44:59.166Z,27.67
2022-12-18T11:47:41.243Z,30.33
2022-12-18T11:50:21.127Z,33.40
2022-12-18T11:52:59.265Z,24.07
2022-12-18T11:55:48.365Z,30.97
2022-12-18T11:58:35.605Z,30.80
2022-12-18T12:01:20.625Z,30.87
2022-12-18T12:04:10.312Z,26.37
2022-12-18T12:06:56.483Z,27.70
2022-12-18T12:09:40.520Z,32.20
2022-12-18T12:12:30.746Z,27.80
2022-12-18T12:15:13.020Z,27.10
2022-12-18T12:17:54.724Z,25.07
2022-12-18T12:20:39.191Z,30.20
2022-12-18T12:23:23.516Z,24.10
2022-12-18T12:26:06.905Z,30.83
2022-12-18T12:28:56.061Z,30.13
2022-12-18T12:31:41.644Z,24.57
2022-12-18T12:34:20.938Z,27.27
2022-12-18T12:37:08.492Z,25.77
2022-12-18T12:39:47.092Z,25.55
2022-12-18T12:42:43.575Z,28.00
2022-12-18T12:45:24.550Z,28.70
2022-12-18T12:48:01.258Z,26.77
2022-12-18T12:50:36.283Z,25.87
2022-12-18T12:53:15.949Z,29.47
2022-12-18T12:55:53.057Z,28.27
2022-12-18T12:58:36.070Z,30.50
2022-12-18T13:01:23.315Z,28.77
2022-12-18T13:04:05.246Z,33.03
2022-12-18T13:06:46.775Z,31.90
2022-12-18T13:09:21.120Z,30.20
2022-12-18T13:12:22.663Z,28.90
2022-12-18T13:15:13.530Z,27.37
2022-12-18T13:17:48.114Z,32.40
2022-12-18T13:20:21.804Z,24.90
2022-12-18T13:22:56.374Z,35.93
2022-12-18T13:25:36.766Z,33.33
2022-12-18T13:28:16.071Z,31.00
2022-12-18T13:30:55.476Z,27.70
2022-12-18T13:36:37.248Z,34.97
2022-12-18T13:39:13.210Z,33.23
2022-12-18T13:41:48.576Z,31.87
2022-12-18T13:44:40.572Z,36.37
2022-12-18T13:47:33.682Z,33.20
2022-12-18T13:50:20.148Z,37.53
2022-12-18T13:52:54.803Z,34.57
2022-12-18T13:55:28.862Z,39.30
2022-12-18T13:58:06.067Z,39.80
2022-12-18T14:00:44.123Z,33.40
2022-12-18T14:03:27.001Z,38.33
2022-12-18T14:06:08.022Z,35.23
2022-12-18T14:08:43.839Z,31.83
2022-12-18T14:11:26.664Z,39.40
2022-12-18T14:14:00.792Z,36.33
2022-12-18T14:16:36.620Z,36.73
2022-12-18T14:19:15.946Z,34.83
2022-12-18T14:21:51.604Z,41.80
2022-12-18T14:24:26.038Z,37.97
2022-12-18T14:27:21.524Z,37.10
2022-12-18T14:29:55.116Z,37.33
2022-12-18T14:32:30.224Z,46.33
2022-12-18T14:35:15.600Z,37.53
2022-12-18T14:37:49.524Z,36.23
2022-12-18T14:40:23.434Z,39.50
2022-12-18T14:42:57.371Z,40.47
2022-12-18T14:45:41.694Z,41.33
2022-12-18T14:48:23.713Z,42.10
2022-12-18T14:51:00.558Z,38.83
2022-12-18T14:53:41.647Z,40.20
2022-12-18T14:56:19.333Z,43.67
2022-12-18T14:58:57.257Z,43.90
2022-12-18T15:01:33.769Z,51.20
2022-12-18T15:04:29.319Z,47.83
2022-12-18T15:07:15.007Z,48.20
2022-12-18T15:10:05.994Z,49.47
2022-12-18T15:12:43.739Z,47.40
2022-12-18T15:15:46.494Z,42.60
2022-12-18T15:18:23.930Z,40.10
2022-12-18T15:21:01.552Z,42.53
2022-12-18T15:23:40.343Z,45.70
2022-12-18T15:26:16.531Z,41.20
2022-12-18T15:28:52.174Z,40.47
2022-12-18T15:31:31.962Z,53.30
2022-12-18T15:34:14.715Z,44.97
2022-12-18T15:36:50.092Z,47.63
2022-12-18T15:39:23.821Z,47.77
2022-12-18T15:42:15.334Z,50.90
2022-12-18T15:44:49.494Z,44.50
2022-12-18T15:47:23.239Z,46.23
2022-12-18T15:49:56.753Z,40.90
2022-12-18T15:52:32.582Z,49.00
2022-12-18T15:55:28.626Z,47.27
2022-12-18T15:58:02.521Z,47.50
2022-12-18T16:00:38.453Z,48.43
2022-12-18T16:03:12.603Z,46.17
2022-12-18T16:05:46.213Z,45.73
2022-12-18T16:08:21.787Z,48.23
2022-12-18T16:10:56.016Z,44.13
2022-12-18T16:13:29.829Z,45.97
2022-12-18T16:16:03.683Z,40.37
2022-12-18T16:18:37.857Z,38.93
2022-12-18T16:21:11.646Z,41.37
2022-12-18T16:23:46.960Z,39.07
2022-12-18T16:26:20.757Z,42.20
2022-12-18T16:28:54.835Z,40.93
2022-12-18T16:31:28.561Z,43.37
2022-12-18T16:34:12.674Z,40.87
2022-12-18T16:36:46.716Z,45.70
2022-12-18T16:39:22.605Z,39.87
2022-12-18T16:41:56.979Z,46.03
2022-12-18T16:44:32.350Z,42.07
2022-12-18T16:47:06.440Z,49.47
2022-12-18T16:49:42.808Z,42.40
2022-12-18T16:52:17.254Z,45.47
2022-12-18T16:54:54.318Z,47.97
2022-12-18T16:57:28.198Z,39.40
2022-12-18T17:00:05.684Z,42.53
2022-12-18T17:02:40.663Z,45.17
2022-12-18T17:05:14.762Z,39.03
2022-12-18T17:07:48.474Z,41.63
2022-12-18T17:10:23.754Z,40.23
2022-12-18T17:12:57.523Z,38.03
2022-12-18T17:15:31.572Z,43.83
2022-12-18T17:18:05.551Z,38.03
2022-12-18T17:20:39.615Z,43.37
2022-12-18T17:23:13.701Z,42.07
2022-12-18T17:25:48.926Z,45.30
2022-12-18T17:28:22.918Z,45.80
2022-12-18T17:30:57.685Z,41.03
2022-12-18T17:33:31.505Z,47.80
2022-12-18T17:36:06.073Z,38.07
2022-12-18T17:38:40.083Z,41.17
2022-12-18T17:41:15.394Z,39.40
2022-12-18T17:43:52.826Z,36.47
2022-12-18T17:46:28.166Z,34.83
2022-12-18T17:49:03.570Z,35.60
2022-12-18T17:51:37.360Z,36.77
2022-12-18T17:54:10.963Z,33.33
2022-12-18T17:56:46.296Z,45.70
2022-12-18T17:59:19.998Z,31.37
2022-12-18T18:01:53.943Z,40.10
2022-12-18T18:04:27.697Z,33.63
2022-12-18T18:07:01.557Z,37.90
2022-12-18T18:09:35.272Z,37.87
2022-12-18T18:12:28.259Z,34.00
2022-12-18T18:15:02.042Z,35.03
2022-12-18T18:17:36.197Z,32.10
2022-12-18T18:20:10.901Z,32.10
2022-12-18T18:22:45.277Z,34.27
2022-12-18T18:25:19.057Z,33.00
2022-12-18T18:27:54.963Z,29.93
2022-12-18T18:30:28.681Z,28.33
2022-12-18T18:33:05.501Z,31.73
2022-12-18T18:35:59.355Z,32.25
2022-12-18T18:38:33.276Z,33.57
2022-12-18T18:41:07.851Z,37.80
2022-12-18T18:43:43.375Z,32.57
2022-12-18T18:46:17.740Z,28.90
2022-12-18T18:48:51.871Z,31.03
2022-12-18T18:51:28.796Z,28.07
2022-12-18T18:54:05.593Z,31.50
2022-12-18T18:57:18.736Z,30.17
2022-12-18T18:59:34.803Z,28.63
2022-12-18T19:02:12.465Z,26.40
2022-12-18T19:04:47.096Z,28.42
2022-12-18T19:07:30.571Z,26.03
2022-12-18T19:10:05.760Z,32.67
2022-12-18T19:12:56.972Z,25.40
2022-12-18T19:15:32.150Z,27.90
2022-12-18T19:18:06.154Z,24.67
2022-12-18T19:20:40.100Z,35.23
2022-12-18T19:23:13.778Z,27.53
2022-12-18T19:25:47.489Z,28.80
2022-12-18T19:28:25.918Z,29.87
2022-12-18T19:31:03.331Z,26.40
2022-12-18T19:33:43.588Z,32.53
2022-12-18T19:36:21.497Z,26.53
2022-12-18T19:38:58.375Z,29.20
2022-12-18T19:41:33.921Z,27.63
2022-12-18T19:44:09.032Z,25.23
2022-12-18T19:46:45.998Z,29.83
2022-12-18T19:49:19.638Z,31.60
2022-12-18T19:51:53.477Z,33.47
2022-12-18T19:54:27.199Z,33.60
2022-12-18T19:57:01.091Z,28.97
2022-12-18T19:59:34.942Z,29.77
2022-12-18T20:02:14.748Z,28.77
2022-12-18T20:04:48.920Z,33.40
2022-12-18T20:07:22.695Z,37.27
2022-12-18T20:10:02.741Z,28.60
2022-12-18T20:12:42.644Z,34.30
2022-12-18T20:15:16.371Z,33.83
2022-12-18T20:17:52.527Z,34.77
2022-12-18T20:20:26.311Z,30.13
2022-12-18T20:23:01.165Z,36.27
2022-12-18T20:25:34.761Z,35.67
2022-12-18T20:28:08.547Z,34.47
2022-12-18T20:30:42.115Z,29.80
2022-12-18T20:33:17.667Z,34.90
2022-12-18T20:35:51.179Z,32.67
2022-12-18T20:38:25.614Z,32.93
2022-12-18T20:41:02.339Z,31.53
2022-12-18T20:43:36.109Z,38.37
2022-12-18T20:46:11.650Z,34.37
2022-12-18T20:48:48.701Z,36.77
2022-12-18T20:51:22.437Z,30.77
2022-12-18T20:53:56.187Z,33.00
2022-12-18T20:56:31.017Z,37.93
2022-12-18T20:59:04.842Z,35.43
2022-12-18T21:01:40.052Z,37.03
2022-12-18T21:04:22.142Z,30.93
2022-12-18T21:07:02.117Z,32.47
2022-12-18T21:09:38.131Z,28.87
2022-12-18T21:12:45.348Z,34.27
2022-12-18T21:15:28.330Z,38.00
2022-12-18T21:18:02.559Z,41.40
2022-12-18T21:20:37.759Z,40.77
2022-12-18T21:23:16.364Z,33.73
2022-12-18T21:25:56.146Z,31.40
2022-12-18T21:28:30.067Z,32.80
2022-12-18T21:31:07.569Z,34.08
2022-12-18T21:33:44.670Z,33.43
2022-12-18T21:36:21.339Z,34.77
2022-12-18T21:38:55.912Z,40.03
2022-12-18T21:41:48.096Z,40.60
2022-12-18T21:44:21.774Z,33.67
2022-12-18T21:47:02.406Z,38.83
2022-12-18T21:49:39.582Z,39.13
2022-12-18T21:52:15.072Z,40.37
2022-12-18T21:54:48.601Z,37.57
2022-12-18T21:57:22.407Z,34.80
2022-12-18T21:59:56.084Z,41.70
2022-12-18T22:02:30.157Z,33.60
2022-12-18T22:05:04.201Z,39.97
2022-12-18T22:07:39.345Z,37.13
2022-12-18T22:10:12.965Z,40.20
2022-12-18T22:12:48.596Z,36.40
2022-12-18T22:15:22.542Z,41.17
2022-12-18T22:17:59.722Z,41.57
2022-12-18T22:20:34.409Z,41.03
2022-12-18T22:23:10.518Z,37.27
2022-12-18T22:25:44.169Z,44.33
2022-12-18T22:28:35.607Z,38.93
2022-12-18T22:31:09.707Z,37.67
2022-12-18T22:33:43.600Z,42.57
2022-12-18T22:36:18.897Z,37.17
2022-12-18T22:38:56.435Z,40.90
2022-12-18T22:41:30.067Z,42.83
2022-12-18T22:44:06.528Z,40.00
2022-12-18T22:46:45.077Z,36.90
2022-12-18T22:49:21.780Z,35.50
2022-12-18T22:51:56.162Z,41.93
2022-12-18T22:54:31.282Z,40.03
2022-12-18T22:57:04.966Z,38.37
2022-12-18T22:59:39.075Z,39.30
2022-12-18T23:02:12.737Z,37.60
2022-12-18T23:04:47.644Z,35.33
2022-12-18T23:07:21.487Z,36.70
2022-12-18T23:09:59.650Z,36.03
2022-12-18T23:12:37.443Z,39.40
2022-12-18T23:15:12.217Z,37.00
2022-12-18T23:17:47.003Z,38.60
2022-12-18T23:20:20.801Z,41.53
2022-12-18T23:22:54.468Z,40.17
2022-12-18T23:25:29.700Z,41.90
2022-12-18T23:28:03.272Z,39.37
2022-12-18T23:30:37.164Z,41.33
2022-12-18T23:33:10.846Z,40.57
2022-12-18T23:35:44.890Z,40.13
2022-12-18T23:38:18.429Z,39.03
2022-12-18T23:40:56.321Z,35.27
2022-12-18T23:43:30.436Z,37.80
2022-12-18T23:46:04.499Z,41.30
2022-12-18T23:48:38.084Z,35.83
2022-12-18T23:51:13.481Z,37.23
2022-12-18T23:53:47.287Z,38.63
2022-12-18T23:56:22.931Z,38.13
2022-12-18T23:58:56.962Z,37.63
